sensor_id;sensor_type;location;lat;lon;timestamp;pressure;altitude;pressure_sealevel;temperature;humidity
77299;BME280;66361;52.034;20.656;2024-03-02T00:00:16;99617.31;;;6.42;85.52
77299;BME280;66361;52.034;20.656;2024-03-02T00:04:24;99620.16;;;6.34;85.47
77299;BME280;66361;52.034;20.656;2024-03-02T00:08:08;99622.09;;;6.29;86.60
77299;BME280;66361;52.034;20.656;2024-03-02T00:11:52;99611.81;;;6.23;86.25
77299;BME280;66361;52.034;20.656;2024-03-02T00:15:40;99612.63;;;6.25;86.36
77299;BME280;66361;52.034;20.656;2024-03-02T00:19:26;99607.56;;;6.19;85.97
77299;BME280;66361;52.034;20.656;2024-03-02T00:23:14;99618.16;;;6.16;86.97
77299;BME280;66361;52.034;20.656;2024-03-02T00:26:58;99613.00;;;6.13;86.88
77299;BME280;66361;52.034;20.656;2024-03-02T00:30:58;99615.72;;;6.10;87.02
77299;BME280;66361;52.034;20.656;2024-03-02T00:34:43;99613.34;;;6.02;87.20
77299;BME280;66361;52.034;20.656;2024-03-02T00:38:28;99617.84;;;5.97;87.60
77299;BME280;66361;52.034;20.656;2024-03-02T00:42:12;99610.19;;;5.91;87.28
77299;BME280;66361;52.034;20.656;2024-03-02T00:45:56;99614.44;;;5.95;87.24
77299;BME280;66361;52.034;20.656;2024-03-02T00:49:44;99606.66;;;5.92;87.58
77299;BME280;66361;52.034;20.656;2024-03-02T00:53:31;99599.69;;;5.93;87.96
77299;BME280;66361;52.034;20.656;2024-03-02T00:57:15;99590.34;;;5.84;88.31
77299;BME280;66361;52.034;20.656;2024-03-02T01:00:59;99594.94;;;5.76;88.33
77299;BME280;66361;52.034;20.656;2024-03-02T01:04:45;99601.00;;;5.78;88.02
77299;BME280;66361;52.034;20.656;2024-03-02T01:08:30;99597.53;;;5.78;88.15
77299;BME280;66361;52.034;20.656;2024-03-02T01:12:14;99606.03;;;5.84;88.32
77299;BME280;66361;52.034;20.656;2024-03-02T01:15:58;99601.03;;;5.77;88.99
77299;BME280;66361;52.034;20.656;2024-03-02T01:19:42;99600.16;;;5.78;88.78
77299;BME280;66361;52.034;20.656;2024-03-02T01:23:28;99591.19;;;5.85;88.52
77299;BME280;66361;52.034;20.656;2024-03-02T01:27:12;99593.97;;;5.80;88.47
77299;BME280;66361;52.034;20.656;2024-03-02T01:30:56;99590.78;;;5.70;88.68
77299;BME280;66361;52.034;20.656;2024-03-02T01:34:40;99585.56;;;5.69;89.35
77299;BME280;66361;52.034;20.656;2024-03-02T01:38:28;99581.94;;;5.75;88.83
77299;BME280;66361;52.034;20.656;2024-03-02T01:42:13;99582.66;;;5.80;89.06
77299;BME280;66361;52.034;20.656;2024-03-02T01:45:58;99571.94;;;5.87;88.40
77299;BME280;66361;52.034;20.656;2024-03-02T01:49:42;99566.50;;;5.93;88.76
77299;BME280;66361;52.034;20.656;2024-03-02T01:53:28;99565.56;;;5.96;88.56
77299;BME280;66361;52.034;20.656;2024-03-02T01:57:11;99575.94;;;5.99;88.45
77299;BME280;66361;52.034;20.656;2024-03-02T02:00:56;99572.50;;;5.97;88.85
77299;BME280;66361;52.034;20.656;2024-03-02T02:04:41;99572.31;;;6.03;88.76
77299;BME280;66361;52.034;20.656;2024-03-02T02:08:25;99571.34;;;6.05;88.64
77299;BME280;66361;52.034;20.656;2024-03-02T02:12:12;99578.41;;;6.03;88.57
77299;BME280;66361;52.034;20.656;2024-03-02T02:16:04;99578.97;;;6.13;87.46
77299;BME280;66361;52.034;20.656;2024-03-02T02:19:49;99565.09;;;6.11;88.03
77299;BME280;66361;52.034;20.656;2024-03-02T02:23:34;99564.97;;;6.14;88.05
77299;BME280;66361;52.034;20.656;2024-03-02T02:27:18;99559.84;;;6.11;88.60
77299;BME280;66361;52.034;20.656;2024-03-02T02:31:05;99558.22;;;6.07;88.14
77299;BME280;66361;52.034;20.656;2024-03-02T02:34:52;99552.03;;;6.09;87.91
77299;BME280;66361;52.034;20.656;2024-03-02T02:38:40;99554.69;;;6.08;88.29
77299;BME280;66361;52.034;20.656;2024-03-02T02:42:26;99552.78;;;6.13;87.64
77299;BME280;66361;52.034;20.656;2024-03-02T02:46:11;99545.81;;;6.12;88.30
77299;BME280;66361;52.034;20.656;2024-03-02T02:49:55;99549.25;;;6.14;87.46
77299;BME280;66361;52.034;20.656;2024-03-02T02:53:41;99551.91;;;6.13;87.41
77299;BME280;66361;52.034;20.656;2024-03-02T02:57:24;99547.47;;;6.16;88.04
77299;BME280;66361;52.034;20.656;2024-03-02T03:01:09;99538.75;;;6.16;87.72
77299;BME280;66361;52.034;20.656;2024-03-02T03:04:53;99546.59;;;6.16;87.39
77299;BME280;66361;52.034;20.656;2024-03-02T03:08:41;99535.31;;;6.14;87.47
77299;BME280;66361;52.034;20.656;2024-03-02T03:12:24;99533.47;;;6.17;88.15
77299;BME280;66361;52.034;20.656;2024-03-02T03:16:08;99533.56;;;6.14;87.74
77299;BME280;66361;52.034;20.656;2024-03-02T03:19:52;99542.34;;;6.12;87.65
77299;BME280;66361;52.034;20.656;2024-03-02T03:23:36;99553.63;;;6.14;87.74
77299;BME280;66361;52.034;20.656;2024-03-02T03:27:21;99543.22;;;6.12;87.85
77299;BME280;66361;52.034;20.656;2024-03-02T03:31:06;99538.78;;;6.14;87.68
77299;BME280;66361;52.034;20.656;2024-03-02T03:34:50;99537.19;;;6.10;87.57
77299;BME280;66361;52.034;20.656;2024-03-02T03:38:35;99533.66;;;6.11;87.03
77299;BME280;66361;52.034;20.656;2024-03-02T03:42:19;99534.50;;;6.12;87.27
77299;BME280;66361;52.034;20.656;2024-03-02T03:46:05;99534.78;;;6.04;87.52
77299;BME280;66361;52.034;20.656;2024-03-02T03:49:49;99521.84;;;5.98;88.05
77299;BME280;66361;52.034;20.656;2024-03-02T03:53:32;99530.69;;;5.95;87.88
77299;BME280;66361;52.034;20.656;2024-03-02T03:57:16;99529.22;;;5.87;88.24
77299;BME280;66361;52.034;20.656;2024-03-02T04:01:00;99537.06;;;5.87;88.41
77299;BME280;66361;52.034;20.656;2024-03-02T04:04:46;99554.81;;;5.77;88.10
77299;BME280;66361;52.034;20.656;2024-03-02T04:08:30;99540.00;;;5.76;88.78
77299;BME280;66361;52.034;20.656;2024-03-02T04:12:14;99539.38;;;5.68;88.92
77299;BME280;66361;52.034;20.656;2024-03-02T04:15:59;99536.25;;;5.57;89.06
77299;BME280;66361;52.034;20.656;2024-03-02T04:19:43;99533.59;;;5.58;89.15
77299;BME280;66361;52.034;20.656;2024-03-02T04:23:28;99537.31;;;5.51;89.08
77299;BME280;66361;52.034;20.656;2024-03-02T04:27:12;99531.44;;;5.43;89.70
77299;BME280;66361;52.034;20.656;2024-03-02T04:30:56;99520.28;;;5.38;89.78
77299;BME280;66361;52.034;20.656;2024-03-02T04:34:40;99522.06;;;5.36;90.20
77299;BME280;66361;52.034;20.656;2024-03-02T04:38:24;99536.06;;;5.34;90.14
77299;BME280;66361;52.034;20.656;2024-03-02T04:42:09;99531.66;;;5.36;90.23
77299;BME280;66361;52.034;20.656;2024-03-02T04:45:53;99530.09;;;5.30;90.41
77299;BME280;66361;52.034;20.656;2024-03-02T04:49:38;99534.50;;;5.28;90.12
77299;BME280;66361;52.034;20.656;2024-03-02T04:53:22;99539.75;;;5.28;90.29
77299;BME280;66361;52.034;20.656;2024-03-02T04:57:06;99543.25;;;5.27;90.03
77299;BME280;66361;52.034;20.656;2024-03-02T05:00:51;99537.97;;;5.28;90.49
77299;BME280;66361;52.034;20.656;2024-03-02T05:04:35;99530.25;;;5.24;90.38
77299;BME280;66361;52.034;20.656;2024-03-02T05:08:19;99551.00;;;5.30;91.00
77299;BME280;66361;52.034;20.656;2024-03-02T05:12:03;99552.84;;;5.26;90.97
77299;BME280;66361;52.034;20.656;2024-03-02T05:16:13;99556.03;;;5.38;90.57
77299;BME280;66361;52.034;20.656;2024-03-02T05:19:57;99559.63;;;5.34;90.40
77299;BME280;66361;52.034;20.656;2024-03-02T05:23:41;99559.56;;;5.35;90.78
77299;BME280;66361;52.034;20.656;2024-03-02T05:27:31;99555.09;;;5.39;90.23
77299;BME280;66361;52.034;20.656;2024-03-02T05:31:17;99565.47;;;5.42;90.49
77299;BME280;66361;52.034;20.656;2024-03-02T05:35:01;99572.19;;;5.50;90.08
77299;BME280;66361;52.034;20.656;2024-03-02T05:38:45;99572.09;;;5.53;90.16
77299;BME280;66361;52.034;20.656;2024-03-02T05:42:29;99572.88;;;5.57;90.22
77299;BME280;66361;52.034;20.656;2024-03-02T05:46:13;99585.91;;;5.58;90.50
77299;BME280;66361;52.034;20.656;2024-03-02T05:49:58;99584.94;;;5.61;90.39
77299;BME280;66361;52.034;20.656;2024-03-02T05:53:42;99583.25;;;5.60;90.41
77299;BME280;66361;52.034;20.656;2024-03-02T05:57:25;99588.53;;;5.58;90.35
77299;BME280;66361;52.034;20.656;2024-03-02T06:01:27;99596.25;;;5.61;90.25
77299;BME280;66361;52.034;20.656;2024-03-02T06:05:14;99591.78;;;5.66;90.21
77299;BME280;66361;52.034;20.656;2024-03-02T06:08:59;99589.94;;;5.68;90.17
77299;BME280;66361;52.034;20.656;2024-03-02T06:12:43;99608.09;;;5.75;90.16
77299;BME280;66361;52.034;20.656;2024-03-02T06:16:30;99595.84;;;5.75;89.63
77299;BME280;66361;52.034;20.656;2024-03-02T06:20:15;99601.03;;;5.77;89.91
77299;BME280;66361;52.034;20.656;2024-03-02T06:23:59;99603.44;;;5.84;89.78
77299;BME280;66361;52.034;20.656;2024-03-02T06:27:43;99605.06;;;5.88;89.52
77299;BME280;66361;52.034;20.656;2024-03-02T06:31:27;99606.63;;;5.94;89.78
77299;BME280;66361;52.034;20.656;2024-03-02T06:35:12;99601.28;;;5.97;89.12
77299;BME280;66361;52.034;20.656;2024-03-02T06:38:57;99605.56;;;5.99;89.31
77299;BME280;66361;52.034;20.656;2024-03-02T06:42:41;99604.59;;;6.03;89.09
77299;BME280;66361;52.034;20.656;2024-03-02T06:46:24;99613.03;;;6.12;88.75
77299;BME280;66361;52.034;20.656;2024-03-02T06:50:09;99613.84;;;6.14;88.68
77299;BME280;66361;52.034;20.656;2024-03-02T06:53:52;99610.94;;;6.23;88.71
77299;BME280;66361;52.034;20.656;2024-03-02T06:57:38;99607.31;;;6.27;88.10
77299;BME280;66361;52.034;20.656;2024-03-02T07:01:22;99605.22;;;6.38;87.50
77299;BME280;66361;52.034;20.656;2024-03-02T07:05:09;99608.66;;;6.40;88.06
77299;BME280;66361;52.034;20.656;2024-03-02T07:08:53;99618.88;;;6.47;87.35
77299;BME280;66361;52.034;20.656;2024-03-02T07:12:39;99612.63;;;6.52;87.70
77299;BME280;66361;52.034;20.656;2024-03-02T07:16:23;99624.66;;;6.57;87.22
77299;BME280;66361;52.034;20.656;2024-03-02T07:20:11;99628.94;;;6.60;86.67
77299;BME280;66361;52.034;20.656;2024-03-02T07:23:55;99626.16;;;6.64;86.48
77299;BME280;66361;52.034;20.656;2024-03-02T07:27:41;99635.31;;;6.77;85.66
77299;BME280;66361;52.034;20.656;2024-03-02T07:31:26;99636.50;;;6.69;86.20
77299;BME280;66361;52.034;20.656;2024-03-02T07:35:10;99644.16;;;6.75;85.72
77299;BME280;66361;52.034;20.656;2024-03-02T07:38:54;99639.91;;;6.71;85.84
77299;BME280;66361;52.034;20.656;2024-03-02T07:42:39;99651.25;;;6.71;86.04
77299;BME280;66361;52.034;20.656;2024-03-02T07:46:24;99652.25;;;6.69;85.38
77299;BME280;66361;52.034;20.656;2024-03-02T07:50:09;99650.81;;;6.59;86.11
77299;BME280;66361;52.034;20.656;2024-03-02T07:53:53;99649.72;;;6.66;85.75
77299;BME280;66361;52.034;20.656;2024-03-02T07:57:37;99646.34;;;6.62;86.33
77299;BME280;66361;52.034;20.656;2024-03-02T08:01:21;99636.59;;;6.66;86.31
77299;BME280;66361;52.034;20.656;2024-03-02T08:05:07;99634.75;;;6.69;86.51
77299;BME280;66361;52.034;20.656;2024-03-02T08:08:51;99644.25;;;6.72;85.29
77299;BME280;66361;52.034;20.656;2024-03-02T08:12:35;99647.66;;;6.75;85.10
77299;BME280;66361;52.034;20.656;2024-03-02T08:16:19;99648.38;;;6.79;85.45
77299;BME280;66361;52.034;20.656;2024-03-02T08:20:05;99650.09;;;6.80;85.45
77299;BME280;66361;52.034;20.656;2024-03-02T08:23:50;99658.66;;;6.85;84.60
77299;BME280;66361;52.034;20.656;2024-03-02T08:27:34;99665.41;;;6.94;84.44
77299;BME280;66361;52.034;20.656;2024-03-02T08:31:19;99665.44;;;6.92;85.23
77299;BME280;66361;52.034;20.656;2024-03-02T08:35:03;99670.81;;;6.89;85.48
77299;BME280;66361;52.034;20.656;2024-03-02T08:38:49;99669.91;;;6.90;84.87
77299;BME280;66361;52.034;20.656;2024-03-02T08:42:33;99667.97;;;6.95;85.37
77299;BME280;66361;52.034;20.656;2024-03-02T08:46:17;99671.38;;;6.99;85.14
77299;BME280;66361;52.034;20.656;2024-03-02T08:50:01;99675.66;;;7.00;84.29
77299;BME280;66361;52.034;20.656;2024-03-02T08:53:46;99672.09;;;7.02;85.23
77299;BME280;66361;52.034;20.656;2024-03-02T08:57:31;99666.53;;;7.11;84.37
77299;BME280;66361;52.034;20.656;2024-03-02T09:01:16;99665.47;;;7.17;83.86
77299;BME280;66361;52.034;20.656;2024-03-02T09:05:02;99668.69;;;7.25;84.29
77299;BME280;66361;52.034;20.656;2024-03-02T09:08:48;99661.63;;;7.27;84.50
77299;BME280;66361;52.034;20.656;2024-03-02T09:12:36;99659.06;;;7.25;84.04
77299;BME280;66361;52.034;20.656;2024-03-02T09:16:21;99668.28;;;7.36;84.39
77299;BME280;66361;52.034;20.656;2024-03-02T09:20:06;99654.75;;;7.48;83.11
77299;BME280;66361;52.034;20.656;2024-03-02T09:23:50;99662.50;;;7.51;83.54
77299;BME280;66361;52.034;20.656;2024-03-02T09:27:37;99662.78;;;7.67;82.22
77299;BME280;66361;52.034;20.656;2024-03-02T09:31:21;99668.94;;;7.65;83.50
77299;BME280;66361;52.034;20.656;2024-03-02T09:35:05;99665.19;;;7.73;82.44
77299;BME280;66361;52.034;20.656;2024-03-02T09:38:49;99668.38;;;7.81;82.16
77299;BME280;66361;52.034;20.656;2024-03-02T09:42:33;99666.19;;;7.70;82.18
77299;BME280;66361;52.034;20.656;2024-03-02T09:46:19;99664.69;;;7.86;81.64
77299;BME280;66361;52.034;20.656;2024-03-02T09:50:03;99667.31;;;7.86;82.40
77299;BME280;66361;52.034;20.656;2024-03-02T09:53:47;99674.91;;;7.94;81.13
77299;BME280;66361;52.034;20.656;2024-03-02T09:57:32;99672.28;;;7.94;81.40
77299;BME280;66361;52.034;20.656;2024-03-02T10:01:15;99670.63;;;7.91;81.44
77299;BME280;66361;52.034;20.656;2024-03-02T10:05:00;99675.63;;;7.97;81.62
77299;BME280;66361;52.034;20.656;2024-03-02T10:08:46;99667.41;;;8.07;81.88
77299;BME280;66361;52.034;20.656;2024-03-02T10:12:31;99669.13;;;8.08;80.89
77299;BME280;66361;52.034;20.656;2024-03-02T10:16:17;99664.91;;;8.25;81.69
77299;BME280;66361;52.034;20.656;2024-03-02T10:20:21;99663.34;;;8.43;81.37
77299;BME280;66361;52.034;20.656;2024-03-02T10:24:07;99662.75;;;8.36;80.41
77299;BME280;66361;52.034;20.656;2024-03-02T10:27:51;99659.09;;;8.61;79.18
77299;BME280;66361;52.034;20.656;2024-03-02T10:31:37;99651.50;;;8.75;78.23
77299;BME280;66361;52.034;20.656;2024-03-02T10:35:24;99648.84;;;8.97;78.27
77299;BME280;66361;52.034;20.656;2024-03-02T10:39:09;99646.09;;;9.00;77.58
77299;BME280;66361;52.034;20.656;2024-03-02T10:42:54;99654.25;;;8.94;77.75
77299;BME280;66361;52.034;20.656;2024-03-02T10:46:38;99648.59;;;9.03;77.10
77299;BME280;66361;52.034;20.656;2024-03-02T10:50:23;99656.03;;;8.93;77.43
77299;BME280;66361;52.034;20.656;2024-03-02T10:54:08;99655.38;;;8.88;77.39
77299;BME280;66361;52.034;20.656;2024-03-02T10:57:53;99638.59;;;8.91;77.75
77299;BME280;66361;52.034;20.656;2024-03-02T11:01:43;99643.34;;;9.03;78.17
77299;BME280;66361;52.034;20.656;2024-03-02T11:05:33;99637.13;;;9.04;78.17
77299;BME280;66361;52.034;20.656;2024-03-02T11:09:20;99626.38;;;9.10;76.61
77299;BME280;66361;52.034;20.656;2024-03-02T11:13:05;99634.47;;;9.46;76.71
77299;BME280;66361;52.034;20.656;2024-03-02T11:16:53;99623.59;;;9.53;76.10
77299;BME280;66361;52.034;20.656;2024-03-02T11:20:39;99632.81;;;9.62;75.24
77299;BME280;66361;52.034;20.656;2024-03-02T11:24:32;99626.06;;;9.56;76.02
77299;BME280;66361;52.034;20.656;2024-03-02T11:28:34;99628.63;;;9.58;75.69
77299;BME280;66361;52.034;20.656;2024-03-02T11:32:21;99631.78;;;9.47;76.04
77299;BME280;66361;52.034;20.656;2024-03-02T11:36:08;99642.31;;;9.47;75.98
77299;BME280;66361;52.034;20.656;2024-03-02T11:39:54;99632.69;;;9.46;76.47
77299;BME280;66361;52.034;20.656;2024-03-02T11:43:38;99624.91;;;9.43;76.31
77299;BME280;66361;52.034;20.656;2024-03-02T11:47:23;99619.38;;;9.49;76.83
77299;BME280;66361;52.034;20.656;2024-03-02T11:51:08;99635.09;;;9.51;76.12
77299;BME280;66361;52.034;20.656;2024-03-02T11:54:54;99630.56;;;9.73;75.71
77299;BME280;66361;52.034;20.656;2024-03-02T11:58:38;99626.28;;;9.71;75.43
77299;BME280;66361;52.034;20.656;2024-03-02T12:02:24;99615.72;;;9.91;75.15
77299;BME280;66361;52.034;20.656;2024-03-02T12:06:11;99621.94;;;10.26;74.70
77299;BME280;66361;52.034;20.656;2024-03-02T12:10:00;99617.53;;;10.26;74.11
77299;BME280;66361;52.034;20.656;2024-03-02T12:13:52;99608.84;;;10.24;73.44
77299;BME280;66361;52.034;20.656;2024-03-02T12:17:37;99614.72;;;10.12;73.54
77299;BME280;66361;52.034;20.656;2024-03-02T12:21:22;99609.03;;;10.38;73.25
77299;BME280;66361;52.034;20.656;2024-03-02T12:25:06;99611.97;;;10.50;73.12
77299;BME280;66361;52.034;20.656;2024-03-02T12:28:50;99604.00;;;10.51;73.26
77299;BME280;66361;52.034;20.656;2024-03-02T12:32:34;99613.84;;;10.48;73.46
77299;BME280;66361;52.034;20.656;2024-03-02T12:36:18;99608.59;;;10.48;72.95
77299;BME280;66361;52.034;20.656;2024-03-02T12:40:05;99617.84;;;10.56;72.59
77299;BME280;66361;52.034;20.656;2024-03-02T12:43:49;99616.44;;;10.66;72.79
77299;BME280;66361;52.034;20.656;2024-03-02T12:47:33;99616.19;;;10.88;71.52
77299;BME280;66361;52.034;20.656;2024-03-02T12:51:17;99609.84;;;10.75;70.84
77299;BME280;66361;52.034;20.656;2024-03-02T12:55:04;99603.25;;;10.66;70.58
77299;BME280;66361;52.034;20.656;2024-03-02T12:58:47;99604.13;;;10.84;71.28
77299;BME280;66361;52.034;20.656;2024-03-02T13:02:31;99608.63;;;10.99;70.88
77299;BME280;66361;52.034;20.656;2024-03-02T13:06:16;99603.34;;;10.99;70.73
77299;BME280;66361;52.034;20.656;2024-03-02T13:10:04;99596.19;;;11.19;70.18
77299;BME280;66361;52.034;20.656;2024-03-02T13:13:48;99605.47;;;11.08;70.17
77299;BME280;66361;52.034;20.656;2024-03-02T13:17:34;99595.25;;;11.37;70.28
77299;BME280;66361;52.034;20.656;2024-03-02T13:21:20;99612.34;;;11.30;70.39
77299;BME280;66361;52.034;20.656;2024-03-02T13:25:05;99600.81;;;11.31;70.20
77299;BME280;66361;52.034;20.656;2024-03-02T13:28:53;99598.81;;;11.36;70.29
77299;BME280;66361;52.034;20.656;2024-03-02T13:32:37;99607.47;;;11.38;70.10
77299;BME280;66361;52.034;20.656;2024-03-02T13:36:21;99604.22;;;11.50;70.09
77299;BME280;66361;52.034;20.656;2024-03-02T13:40:08;99609.97;;;11.41;70.17
77299;BME280;66361;52.034;20.656;2024-03-02T13:43:56;99616.66;;;11.31;70.75
77299;BME280;66361;52.034;20.656;2024-03-02T13:47:43;99611.63;;;11.26;70.73
77299;BME280;66361;52.034;20.656;2024-03-02T13:51:27;99607.13;;;11.28;70.26
77299;BME280;66361;52.034;20.656;2024-03-02T13:55:12;99605.13;;;10.99;70.53
77299;BME280;66361;52.034;20.656;2024-03-02T13:58:57;99611.78;;;11.06;70.55
77299;BME280;66361;52.034;20.656;2024-03-02T14:02:41;99610.41;;;10.99;71.67
77299;BME280;66361;52.034;20.656;2024-03-02T14:06:25;99608.47;;;10.85;71.76
77299;BME280;66361;52.034;20.656;2024-03-02T14:10:10;99608.28;;;10.88;71.99
77299;BME280;66361;52.034;20.656;2024-03-02T14:13:55;99606.22;;;10.77;72.10
77299;BME280;66361;52.034;20.656;2024-03-02T14:17:39;99611.22;;;10.65;72.33
77299;BME280;66361;52.034;20.656;2024-03-02T14:21:24;99605.09;;;10.64;72.60
77299;BME280;66361;52.034;20.656;2024-03-02T14:25:08;99614.94;;;10.61;72.66
77299;BME280;66361;52.034;20.656;2024-03-02T14:28:52;99608.41;;;10.51;72.68
77299;BME280;66361;52.034;20.656;2024-03-02T14:32:39;99609.50;;;10.47;73.68
77299;BME280;66361;52.034;20.656;2024-03-02T14:36:23;99603.75;;;10.38;73.67
77299;BME280;66361;52.034;20.656;2024-03-02T14:40:09;99606.06;;;10.27;73.79
77299;BME280;66361;52.034;20.656;2024-03-02T14:43:54;99606.50;;;10.18;74.11
77299;BME280;66361;52.034;20.656;2024-03-02T14:47:40;99599.88;;;10.10;74.36
77299;BME280;66361;52.034;20.656;2024-03-02T14:51:24;99596.81;;;10.00;74.61
77299;BME280;66361;52.034;20.656;2024-03-02T14:55:08;99605.81;;;9.96;74.41
77299;BME280;66361;52.034;20.656;2024-03-02T14:58:52;99604.69;;;9.83;74.70
77299;BME280;66361;52.034;20.656;2024-03-02T15:02:36;99606.88;;;9.73;74.95
77299;BME280;66361;52.034;20.656;2024-03-02T15:06:21;99593.44;;;9.61;75.33
77299;BME280;66361;52.034;20.656;2024-03-02T15:10:06;99611.41;;;9.51;75.44
77299;BME280;66361;52.034;20.656;2024-03-02T15:13:51;99601.50;;;9.37;76.09
77299;BME280;66361;52.034;20.656;2024-03-02T15:17:35;99594.75;;;9.32;76.29
77299;BME280;66361;52.034;20.656;2024-03-02T15:21:18;99595.75;;;9.28;76.80
77299;BME280;66361;52.034;20.656;2024-03-02T15:25:07;99598.94;;;9.15;77.46
77299;BME280;66361;52.034;20.656;2024-03-02T15:28:51;99601.69;;;9.12;77.57
77299;BME280;66361;52.034;20.656;2024-03-02T15:32:36;99598.47;;;9.06;77.37
77299;BME280;66361;52.034;20.656;2024-03-02T15:36:22;99596.13;;;9.00;77.62
77299;BME280;66361;52.034;20.656;2024-03-02T15:40:09;99591.25;;;8.91;78.25
77299;BME280;66361;52.034;20.656;2024-03-02T15:43:54;99587.00;;;8.88;77.75
77299;BME280;66361;52.034;20.656;2024-03-02T15:47:39;99590.88;;;8.79;78.71
77299;BME280;66361;52.034;20.656;2024-03-02T15:51:24;99596.44;;;8.72;78.21
77299;BME280;66361;52.034;20.656;2024-03-02T15:55:09;99589.72;;;8.65;79.16
77299;BME280;66361;52.034;20.656;2024-03-02T15:58:53;99596.03;;;8.61;78.34
77299;BME280;66361;52.034;20.656;2024-03-02T16:02:37;99604.16;;;8.55;78.96
77299;BME280;66361;52.034;20.656;2024-03-02T16:06:21;99594.78;;;8.49;78.99
77299;BME280;66361;52.034;20.656;2024-03-02T16:10:06;99595.75;;;8.47;78.89
77299;BME280;66361;52.034;20.656;2024-03-02T16:13:52;99605.41;;;8.46;79.07
77299;BME280;66361;52.034;20.656;2024-03-02T16:17:36;99609.13;;;8.40;78.87
77299;BME280;66361;52.034;20.656;2024-03-02T16:21:20;99610.34;;;8.32;79.92
77299;BME280;66361;52.034;20.656;2024-03-02T16:25:08;99610.34;;;8.32;79.50
77299;BME280;66361;52.034;20.656;2024-03-02T16:28:53;99615.88;;;8.26;80.31
77299;BME280;66361;52.034;20.656;2024-03-02T16:32:37;99613.28;;;8.24;79.90
77299;BME280;66361;52.034;20.656;2024-03-02T16:36:21;99630.06;;;8.22;80.44
77299;BME280;66361;52.034;20.656;2024-03-02T16:40:06;99618.00;;;8.16;79.76
77299;BME280;66361;52.034;20.656;2024-03-02T16:43:52;99622.78;;;8.07;80.72
77299;BME280;66361;52.034;20.656;2024-03-02T16:47:37;99628.06;;;8.05;80.80
77299;BME280;66361;52.034;20.656;2024-03-02T16:51:22;99620.44;;;7.99;80.99
77299;BME280;66361;52.034;20.656;2024-03-02T16:55:07;99631.84;;;7.98;81.87
77299;BME280;66361;52.034;20.656;2024-03-02T16:58:52;99625.84;;;7.94;80.86
77299;BME280;66361;52.034;20.656;2024-03-02T17:02:40;99624.31;;;7.89;81.48
77299;BME280;66361;52.034;20.656;2024-03-02T17:06:23;99633.06;;;7.89;81.67
77299;BME280;66361;52.034;20.656;2024-03-02T17:10:09;99630.63;;;7.85;81.70
77299;BME280;66361;52.034;20.656;2024-03-02T17:13:54;99636.16;;;7.77;82.64
77299;BME280;66361;52.034;20.656;2024-03-02T17:17:40;99630.88;;;7.79;82.68
77299;BME280;66361;52.034;20.656;2024-03-02T17:21:24;99632.91;;;7.71;82.35
77299;BME280;66361;52.034;20.656;2024-03-02T17:25:08;99638.31;;;7.66;82.44
77299;BME280;66361;52.034;20.656;2024-03-02T17:28:54;99636.72;;;7.62;83.39
77299;BME280;66361;52.034;20.656;2024-03-02T17:32:38;99639.31;;;7.63;83.43
77299;BME280;66361;52.034;20.656;2024-03-02T17:36:22;99637.63;;;7.61;82.90
77299;BME280;66361;52.034;20.656;2024-03-02T17:40:07;99635.88;;;7.61;82.91
77299;BME280;66361;52.034;20.656;2024-03-02T17:43:55;99630.63;;;7.61;82.93
77299;BME280;66361;52.034;20.656;2024-03-02T17:47:39;99635.88;;;7.61;83.23
77299;BME280;66361;52.034;20.656;2024-03-02T17:51:23;99644.47;;;7.65;82.73
77299;BME280;66361;52.034;20.656;2024-03-02T17:55:08;99641.97;;;7.62;83.47
77299;BME280;66361;52.034;20.656;2024-03-02T17:58:52;99641.97;;;7.62;82.64
77299;BME280;66361;52.034;20.656;2024-03-02T18:02:37;99644.38;;;7.68;83.19
77299;BME280;66361;52.034;20.656;2024-03-02T18:06:21;99650.59;;;7.65;83.41
77299;BME280;66361;52.034;20.656;2024-03-02T18:10:08;99639.06;;;7.70;82.76
77299;BME280;66361;52.034;20.656;2024-03-02T18:13:53;99645.50;;;7.61;83.19
77299;BME280;66361;52.034;20.656;2024-03-02T18:17:39;99646.47;;;7.58;83.00
77299;BME280;66361;52.034;20.656;2024-03-02T18:21:23;99642.03;;;7.60;83.90
77299;BME280;66361;52.034;20.656;2024-03-02T18:25:07;99637.91;;;7.53;83.24
77299;BME280;66361;52.034;20.656;2024-03-02T18:28:51;99646.56;;;7.57;83.62
77299;BME280;66361;52.034;20.656;2024-03-02T18:32:38;99643.94;;;7.57;82.68
77299;BME280;66361;52.034;20.656;2024-03-02T18:36:22;99640.44;;;7.56;83.60
77299;BME280;66361;52.034;20.656;2024-03-02T18:40:07;99643.16;;;7.53;83.03
77299;BME280;66361;52.034;20.656;2024-03-02T18:43:51;99639.53;;;7.57;83.63
77299;BME280;66361;52.034;20.656;2024-03-02T18:47:35;99637.06;;;7.53;83.74
77299;BME280;66361;52.034;20.656;2024-03-02T18:51:22;99641.22;;;7.58;83.85
77299;BME280;66361;52.034;20.656;2024-03-02T18:55:08;99635.91;;;7.60;82.90
77299;BME280;66361;52.034;20.656;2024-03-02T18:58:54;99636.84;;;7.59;83.01
77299;BME280;66361;52.034;20.656;2024-03-02T19:02:39;99636.09;;;7.55;83.48
77299;BME280;66361;52.034;20.656;2024-03-02T19:06:24;99631.75;;;7.54;83.25
77299;BME280;66361;52.034;20.656;2024-03-02T19:10:09;99638.78;;;7.54;83.11
77299;BME280;66361;52.034;20.656;2024-03-02T19:13:53;99633.53;;;7.54;83.39
77299;BME280;66361;52.034;20.656;2024-03-02T19:17:37;99636.84;;;7.59;83.41
77299;BME280;66361;52.034;20.656;2024-03-02T19:21:21;99631.94;;;7.50;83.81
77299;BME280;66361;52.034;20.656;2024-03-02T19:25:09;99631.25;;;7.45;83.62
77299;BME280;66361;52.034;20.656;2024-03-02T19:28:54;99638.88;;;7.51;83.42
77299;BME280;66361;52.034;20.656;2024-03-02T19:32:38;99631.72;;;7.56;82.81
77299;BME280;66361;52.034;20.656;2024-03-02T19:36:23;99636.34;;;7.49;83.96
77299;BME280;66361;52.034;20.656;2024-03-02T19:40:09;99636.09;;;7.55;83.62
77299;BME280;66361;52.034;20.656;2024-03-02T19:43:54;99639.88;;;7.48;83.50
77299;BME280;66361;52.034;20.656;2024-03-02T19:47:38;99633.91;;;7.43;84.05